sensor_id;sensor_type;location;lat;lon;timestamp;P1;durP1;ratioP1;P2;durP2;ratioP2
23490;SDS011;14683;50.038;8.078;2023-04-24T04:22:21;1.60;;;1.50;;
23490;SDS011;14683;50.038;8.078;2023-04-24T04:24:50;1.75;;;1.65;;
23490;SDS011;14683;50.038;8.078;2023-04-24T04:27:18;2.88;;;2.00;;
23490;SDS011;14683;50.038;8.078;2023-04-24T04:29:51;2.15;;;1.60;;
23490;SDS011;14683;50.038;8.078;2023-04-24T04:32:19;2.22;;;2.08;;
23490;SDS011;14683;50.038;8.078;2023-04-24T04:37:11;2.72;;;1.77;;
23490;SDS011;14683;50.038;8.078;2023-04-24T04:40:07;2.00;;;1.90;;
23490;SDS011;14683;50.038;8.078;2023-04-24T04:42:42;1.92;;;1.83;;
23490;SDS011;14683;50.038;8.078;2023-04-24T04:45:11;2.85;;;1.80;;
23490;SDS011;14683;50.038;8.078;2023-04-24T04:47:50;2.65;;;2.45;;
23490;SDS011;14683;50.038;8.078;2023-04-24T04:50:20;5.00;;;1.92;;
23490;SDS011;14683;50.038;8.078;2023-04-24T04:52:48;2.95;;;1.80;;
23490;SDS011;14683;50.038;8.078;2023-04-24T04:55:22;2.00;;;1.90;;
23490;SDS011;14683;50.038;8.078;2023-04-24T04:58:06;2.25;;;2.03;;
23490;SDS011;14683;50.038;8.078;2023-04-24T05:00:32;2.28;;;2.03;;
23490;SDS011;14683;50.038;8.078;2023-04-24T05:03:04;2.72;;;1.90;;
23490;SDS011;14683;50.038;8.078;2023-04-24T05:05:31;3.47;;;2.28;;
23490;SDS011;14683;50.038;8.078;2023-04-24T05:10:23;2.80;;;2.10;;
23490;SDS011;14683;50.038;8.078;2023-04-24T05:12:52;4.43;;;2.50;;
23490;SDS011;14683;50.038;8.078;2023-04-24T05:15:18;2.70;;;2.38;;
23490;SDS011;14683;50.038;8.078;2023-04-24T05:17:44;3.00;;;2.67;;
23490;SDS011;14683;50.038;8.078;2023-04-24T05:20:12;3.33;;;2.67;;
23490;SDS011;14683;50.038;8.078;2023-04-24T05:22:38;3.70;;;2.97;;
23490;SDS011;14683;50.038;8.078;2023-04-24T05:25:04;2.97;;;2.78;;
23490;SDS011;14683;50.038;8.078;2023-04-24T05:27:35;3.60;;;3.30;;
23490;SDS011;14683;50.038;8.078;2023-04-24T05:30:08;3.63;;;3.08;;
23490;SDS011;14683;50.038;8.078;2023-04-24T05:32:35;4.97;;;3.20;;
23490;SDS011;14683;50.038;8.078;2023-04-24T05:35:01;3.50;;;3.20;;
23490;SDS011;14683;50.038;8.078;2023-04-24T05:37:27;3.75;;;3.20;;
23490;SDS011;14683;50.038;8.078;2023-04-24T05:39:53;3.50;;;3.20;;
23490;SDS011;14683;50.038;8.078;2023-04-24T05:42:20;3.20;;;2.85;;
23490;SDS011;14683;50.038;8.078;2023-04-24T05:47:12;4.70;;;3.67;;
23490;SDS011;14683;50.038;8.078;2023-04-24T05:49:38;3.88;;;3.40;;
23490;SDS011;14683;50.038;8.078;2023-04-24T05:52:04;3.40;;;3.15;;
23490;SDS011;14683;50.038;8.078;2023-04-24T05:54:32;3.85;;;3.45;;
23490;SDS011;14683;50.038;8.078;2023-04-24T05:56:58;3.83;;;3.35;;
23490;SDS011;14683;50.038;8.078;2023-04-24T05:59:36;4.18;;;2.80;;
23490;SDS011;14683;50.038;8.078;2023-04-24T06:02:03;6.25;;;3.55;;
23490;SDS011;14683;50.038;8.078;2023-04-24T06:04:29;6.57;;;3.20;;
23490;SDS011;14683;50.038;8.078;2023-04-24T06:06:55;4.00;;;2.97;;
23490;SDS011;14683;50.038;8.078;2023-04-24T06:09:22;4.97;;;3.05;;
23490;SDS011;14683;50.038;8.078;2023-04-24T06:11:49;3.67;;;2.92;;
23490;SDS011;14683;50.038;8.078;2023-04-24T06:14:15;3.35;;;3.05;;
23490;SDS011;14683;50.038;8.078;2023-04-24T06:17:01;3.40;;;2.92;;
23490;SDS011;14683;50.038;8.078;2023-04-24T06:19:34;2.72;;;2.53;;
23490;SDS011;14683;50.038;8.078;2023-04-24T06:22:00;3.00;;;2.67;;
23490;SDS011;14683;50.038;8.078;2023-04-24T06:24:29;2.92;;;2.72;;
23490;SDS011;14683;50.038;8.078;2023-04-24T06:26:55;3.22;;;2.90;;
23490;SDS011;14683;50.038;8.078;2023-04-24T06:29:22;4.25;;;2.67;;
23490;SDS011;14683;50.038;8.078;2023-04-24T06:31:50;2.45;;;2.25;;
23490;SDS011;14683;50.038;8.078;2023-04-24T06:34:16;2.17;;;2.08;;
23490;SDS011;14683;50.038;8.078;2023-04-24T06:36:41;2.28;;;2.10;;
23490;SDS011;14683;50.038;8.078;2023-04-24T06:39:08;3.20;;;2.38;;
23490;SDS011;14683;50.038;8.078;2023-04-24T06:41:34;3.20;;;2.28;;
23490;SDS011;14683;50.038;8.078;2023-04-24T06:44:00;2.58;;;2.35;;
23490;SDS011;14683;50.038;8.078;2023-04-24T06:46:26;2.13;;;1.92;;
23490;SDS011;14683;50.038;8.078;2023-04-24T06:48:53;3.10;;;2.25;;
23490;SDS011;14683;50.038;8.078;2023-04-24T06:51:23;2.33;;;2.08;;
23490;SDS011;14683;50.038;8.078;2023-04-24T06:53:49;3.38;;;2.60;;
23490;SDS011;14683;50.038;8.078;2023-04-24T06:58:41;2.40;;;2.20;;
23490;SDS011;14683;50.038;8.078;2023-04-24T07:03:33;3.80;;;2.45;;
23490;SDS011;14683;50.038;8.078;2023-04-24T07:05:59;2.40;;;2.30;;
23490;SDS011;14683;50.038;8.078;2023-04-24T07:08:25;5.35;;;2.47;;
23490;SDS011;14683;50.038;8.078;2023-04-24T07:10:52;2.40;;;2.00;;
23490;SDS011;14683;50.038;8.078;2023-04-24T07:13:17;2.17;;;1.90;;
23490;SDS011;14683;50.038;8.078;2023-04-24T07:15:43;2.17;;;2.08;;
23490;SDS011;14683;50.038;8.078;2023-04-24T07:18:10;4.05;;;1.88;;
23490;SDS011;14683;50.038;8.078;2023-04-24T07:20:36;2.47;;;2.28;;
23490;SDS011;14683;50.038;8.078;2023-04-24T07:23:02;3.47;;;2.25;;
23490;SDS011;14683;50.038;8.078;2023-04-24T07:27:54;4.28;;;2.58;;
23490;SDS011;14683;50.038;8.078;2023-04-24T07:30:20;3.03;;;2.45;;
23490;SDS011;14683;50.038;8.078;2023-04-24T07:32:46;3.05;;;2.60;;
23490;SDS011;14683;50.038;8.078;2023-04-24T07:35:12;2.50;;;2.30;;
23490;SDS011;14683;50.038;8.078;2023-04-24T07:37:38;5.20;;;2.38;;
23490;SDS011;14683;50.038;8.078;2023-04-24T07:40:04;2.30;;;2.10;;
23490;SDS011;14683;50.038;8.078;2023-04-24T07:42:31;2.80;;;2.60;;
23490;SDS011;14683;50.038;8.078;2023-04-24T07:44:57;2.53;;;2.33;;
23490;SDS011;14683;50.038;8.078;2023-04-24T07:47:23;5.65;;;2.40;;
23490;SDS011;14683;50.038;8.078;2023-04-24T07:49:49;3.80;;;2.50;;
23490;SDS011;14683;50.038;8.078;2023-04-24T07:52:15;2.42;;;2.22;;
23490;SDS011;14683;50.038;8.078;2023-04-24T07:54:41;2.50;;;2.30;;
23490;SDS011;14683;50.038;8.078;2023-04-24T07:57:08;3.05;;;2.40;;
23490;SDS011;14683;50.038;8.078;2023-04-24T07:59:34;2.72;;;2.30;;
23490;SDS011;14683;50.038;8.078;2023-04-24T08:02:00;3.20;;;2.90;;
23490;SDS011;14683;50.038;8.078;2023-04-24T08:04:27;3.47;;;2.70;;
23490;SDS011;14683;50.038;8.078;2023-04-24T08:09:19;2.70;;;2.50;;
23490;SDS011;14683;50.038;8.078;2023-04-24T08:14:11;2.58;;;2.38;;
23490;SDS011;14683;50.038;8.078;2023-04-24T08:16:38;3.78;;;2.45;;
23490;SDS011;14683;50.038;8.078;2023-04-24T08:19:04;2.58;;;2.30;;
23490;SDS011;14683;50.038;8.078;2023-04-24T08:21:30;2.38;;;2.20;;
23490;SDS011;14683;50.038;8.078;2023-04-24T08:23:57;4.25;;;2.45;;
23490;SDS011;14683;50.038;8.078;2023-04-24T08:26:23;2.20;;;2.10;;
23490;SDS011;14683;50.038;8.078;2023-04-24T08:28:49;2.75;;;2.50;;
23490;SDS011;14683;50.038;8.078;2023-04-24T08:31:15;3.20;;;2.25;;
23490;SDS011;14683;50.038;8.078;2023-04-24T08:33:41;3.85;;;2.50;;
23490;SDS011;14683;50.038;8.078;2023-04-24T08:36:10;3.90;;;2.28;;
23490;SDS011;14683;50.038;8.078;2023-04-24T08:38:36;3.08;;;1.98;;
23490;SDS011;14683;50.038;8.078;2023-04-24T08:41:02;2.70;;;2.15;;
23490;SDS011;14683;50.038;8.078;2023-04-24T08:43:30;2.20;;;2.10;;
23490;SDS011;14683;50.038;8.078;2023-04-24T08:45:58;4.47;;;2.20;;
23490;SDS011;14683;50.038;8.078;2023-04-24T08:48:24;1.90;;;1.80;;
23490;SDS011;14683;50.038;8.078;2023-04-24T08:53:17;2.28;;;2.00;;
23490;SDS011;14683;50.038;8.078;2023-04-24T08:55:44;2.13;;;1.92;;
23490;SDS011;14683;50.038;8.078;2023-04-24T08:58:13;2.25;;;2.05;;
23490;SDS011;14683;50.038;8.078;2023-04-24T09:00:41;2.40;;;1.98;;
23490;SDS011;14683;50.038;8.078;2023-04-24T09:03:15;2.28;;;2.10;;
23490;SDS011;14683;50.038;8.078;2023-04-24T09:05:42;1.90;;;1.70;;
23490;SDS011;14683;50.038;8.078;2023-04-24T09:08:11;2.00;;;1.83;;
23490;SDS011;14683;50.038;8.078;2023-04-24T09:10:39;1.92;;;1.65;;
23490;SDS011;14683;50.038;8.078;2023-04-24T09:13:06;1.60;;;1.40;;
23490;SDS011;14683;50.038;8.078;2023-04-24T09:15:34;1.67;;;1.52;;
23490;SDS011;14683;50.038;8.078;2023-04-24T09:18:01;1.75;;;1.38;;
23490;SDS011;14683;50.038;8.078;2023-04-24T09:20:27;1.30;;;1.20;;
23490;SDS011;14683;50.038;8.078;2023-04-24T09:22:54;1.48;;;1.45;;
23490;SDS011;14683;50.038;8.078;2023-04-24T09:25:21;2.55;;;1.75;;
23490;SDS011;14683;50.038;8.078;2023-04-24T09:27:47;1.80;;;1.30;;
23490;SDS011;14683;50.038;8.078;2023-04-24T09:30:13;1.20;;;1.10;;
23490;SDS011;14683;50.038;8.078;2023-04-24T09:32:40;1.10;;;1.10;;
23490;SDS011;14683;50.038;8.078;2023-04-24T09:35:10;1.27;;;0.98;;
23490;SDS011;14683;50.038;8.078;2023-04-24T09:37:41;1.30;;;1.20;;
23490;SDS011;14683;50.038;8.078;2023-04-24T09:40:09;1.60;;;1.50;;
23490;SDS011;14683;50.038;8.078;2023-04-24T09:42:39;1.55;;;1.45;;
23490;SDS011;14683;50.038;8.078;2023-04-24T09:45:09;1.83;;;1.73;;
23490;SDS011;14683;50.038;8.078;2023-04-24T09:47:37;1.50;;;1.25;;
23490;SDS011;14683;50.038;8.078;2023-04-24T09:50:10;2.35;;;1.33;;
23490;SDS011;14683;50.038;8.078;2023-04-24T09:52:44;1.77;;;1.10;;
23490;SDS011;14683;50.038;8.078;2023-04-24T09:55:21;1.10;;;1.10;;
23490;SDS011;14683;50.038;8.078;2023-04-24T10:00:24;1.40;;;1.30;;
23490;SDS011;14683;50.038;8.078;2023-04-24T10:02:58;1.30;;;1.20;;
23490;SDS011;14683;50.038;8.078;2023-04-24T10:05:28;1.17;;;0.80;;
23490;SDS011;14683;50.038;8.078;2023-04-24T10:08:03;1.35;;;1.10;;
23490;SDS011;14683;50.038;8.078;2023-04-24T10:10:40;1.40;;;1.30;;
23490;SDS011;14683;50.038;8.078;2023-04-24T10:13:07;1.63;;;1.00;;
23490;SDS011;14683;50.038;8.078;2023-04-24T10:15:35;1.30;;;0.98;;
23490;SDS011;14683;50.038;8.078;2023-04-24T10:18:02;1.55;;;1.05;;
23490;SDS011;14683;50.038;8.078;2023-04-24T10:20:30;0.90;;;0.90;;
23490;SDS011;14683;50.038;8.078;2023-04-24T10:22:57;2.95;;;1.10;;
23490;SDS011;14683;50.038;8.078;2023-04-24T10:25:24;1.38;;;1.00;;
23490;SDS011;14683;50.038;8.078;2023-04-24T10:27:56;1.23;;;1.23;;
23490;SDS011;14683;50.038;8.078;2023-04-24T10:30:25;1.05;;;0.90;;
23490;SDS011;14683;50.038;8.078;2023-04-24T10:32:52;1.30;;;1.20;;
23490;SDS011;14683;50.038;8.078;2023-04-24T10:35:18;1.33;;;1.23;;
23490;SDS011;14683;50.038;8.078;2023-04-24T10:40:33;1.15;;;1.15;;
23490;SDS011;14683;50.038;8.078;2023-04-24T10:43:03;0.90;;;0.90;;
23490;SDS011;14683;50.038;8.078;2023-04-24T10:45:35;1.05;;;1.00;;
23490;SDS011;14683;50.038;8.078;2023-04-24T10:48:02;1.00;;;1.00;;
23490;SDS011;14683;50.038;8.078;2023-04-24T10:50:43;1.60;;;1.50;;
23490;SDS011;14683;50.038;8.078;2023-04-24T10:53:20;1.95;;;1.40;;
23490;SDS011;14683;50.038;8.078;2023-04-24T10:55:49;1.95;;;1.40;;
23490;SDS011;14683;50.038;8.078;2023-04-24T10:58:21;2.25;;;1.35;;
23490;SDS011;14683;50.038;8.078;2023-04-24T11:00:58;1.60;;;1.50;;
23490;SDS011;14683;50.038;8.078;2023-04-24T11:03:26;1.90;;;1.80;;
23490;SDS011;14683;50.038;8.078;2023-04-24T11:05:55;2.00;;;1.83;;
23490;SDS011;14683;50.038;8.078;2023-04-24T11:08:26;3.40;;;1.70;;
23490;SDS011;14683;50.038;8.078;2023-04-24T11:21:48;1.73;;;1.63;;
23490;SDS011;14683;50.038;8.078;2023-04-24T11:24:26;3.33;;;2.28;;
23490;SDS011;14683;50.038;8.078;2023-04-24T11:27:14;2.28;;;1.65;;
23490;SDS011;14683;50.038;8.078;2023-04-24T11:29:42;2.38;;;1.60;;
23490;SDS011;14683;50.038;8.078;2023-04-24T11:34:50;2.42;;;2.20;;
23490;SDS011;14683;50.038;8.078;2023-04-24T11:37:18;5.10;;;2.50;;
23490;SDS011;14683;50.038;8.078;2023-04-24T11:42:10;2.88;;;2.67;;
23490;SDS011;14683;50.038;8.078;2023-04-24T11:44:36;5.03;;;3.17;;
23490;SDS011;14683;50.038;8.078;2023-04-24T11:47:05;2.92;;;2.45;;
23490;SDS011;14683;50.038;8.078;2023-04-24T11:49:32;3.88;;;2.30;;
23490;SDS011;14683;50.038;8.078;2023-04-24T11:54:27;3.88;;;3.17;;
23490;SDS011;14683;50.038;8.078;2023-04-24T11:59:21;5.47;;;3.08;;
23490;SDS011;14683;50.038;8.078;2023-04-24T12:01:47;3.65;;;2.60;;
23490;SDS011;14683;50.038;8.078;2023-04-24T12:04:15;3.50;;;2.67;;
23490;SDS011;14683;50.038;8.078;2023-04-24T12:07:03;3.60;;;2.40;;
23490;SDS011;14683;50.038;8.078;2023-04-24T12:09:29;3.17;;;2.88;;
23490;SDS011;14683;50.038;8.078;2023-04-24T12:11:55;3.58;;;2.67;;
23490;SDS011;14683;50.038;8.078;2023-04-24T12:14:22;4.15;;;3.03;;
23490;SDS011;14683;50.038;8.078;2023-04-24T12:16:52;4.78;;;2.65;;
23490;SDS011;14683;50.038;8.078;2023-04-24T12:19:22;3.70;;;2.92;;
23490;SDS011;14683;50.038;8.078;2023-04-24T12:21:58;5.60;;;3.70;;
23490;SDS011;14683;50.038;8.078;2023-04-24T12:24:25;4.32;;;2.75;;
23490;SDS011;14683;50.038;8.078;2023-04-24T12:26:51;2.95;;;2.75;;
23490;SDS011;14683;50.038;8.078;2023-04-24T12:29:19;2.92;;;2.63;;
23490;SDS011;14683;50.038;8.078;2023-04-24T12:31:46;3.30;;;3.00;;
23490;SDS011;14683;50.038;8.078;2023-04-24T12:34:19;3.83;;;2.75;;
23490;SDS011;14683;50.038;8.078;2023-04-24T12:36:46;3.50;;;3.22;;
23490;SDS011;14683;50.038;8.078;2023-04-24T12:39:16;5.80;;;3.22;;
23490;SDS011;14683;50.038;8.078;2023-04-24T12:41:55;3.42;;;3.10;;
23490;SDS011;14683;50.038;8.078;2023-04-24T12:44:29;3.13;;;2.83;;
23490;SDS011;14683;50.038;8.078;2023-04-24T12:47:00;4.10;;;2.90;;
23490;SDS011;14683;50.038;8.078;2023-04-24T12:49:27;4.40;;;3.15;;
23490;SDS011;14683;50.038;8.078;2023-04-24T12:51:53;3.53;;;3.20;;
23490;SDS011;14683;50.038;8.078;2023-04-24T12:54:19;2.92;;;2.72;;
23490;SDS011;14683;50.038;8.078;2023-04-24T12:56:45;3.65;;;2.80;;
23490;SDS011;14683;50.038;8.078;2023-04-24T12:59:11;3.88;;;2.20;;
23490;SDS011;14683;50.038;8.078;2023-04-24T13:01:37;3.22;;;2.67;;
23490;SDS011;14683;50.038;8.078;2023-04-24T13:04:04;5.55;;;2.72;;
23490;SDS011;14683;50.038;8.078;2023-04-24T13:06:30;3.90;;;2.90;;
23490;SDS011;14683;50.038;8.078;2023-04-24T13:08:57;5.30;;;3.25;;
23490;SDS011;14683;50.038;8.078;2023-04-24T13:11:23;4.10;;;3.33;;
23490;SDS011;14683;50.038;8.078;2023-04-24T13:13:50;5.40;;;3.53;;
23490;SDS011;14683;50.038;8.078;2023-04-24T13:16:16;6.55;;;3.67;;
23490;SDS011;14683;50.038;8.078;2023-04-24T13:18:42;4.78;;;3.60;;
23490;SDS011;14683;50.038;8.078;2023-04-24T13:21:08;5.13;;;3.45;;
23490;SDS011;14683;50.038;8.078;2023-04-24T13:23:34;6.85;;;3.90;;
23490;SDS011;14683;50.038;8.078;2023-04-24T13:28:26;6.35;;;4.05;;
23490;SDS011;14683;50.038;8.078;2023-04-24T13:30:53;5.93;;;4.07;;
23490;SDS011;14683;50.038;8.078;2023-04-24T13:33:19;5.28;;;3.33;;
23490;SDS011;14683;50.038;8.078;2023-04-24T13:35:45;5.43;;;3.17;;
23490;SDS011;14683;50.038;8.078;2023-04-24T13:38:11;5.30;;;3.22;;
23490;SDS011;14683;50.038;8.078;2023-04-24T13:40:37;5.85;;;3.30;;
23490;SDS011;14683;50.038;8.078;2023-04-24T13:43:03;5.45;;;3.60;;
23490;SDS011;14683;50.038;8.078;2023-04-24T13:45:29;4.78;;;3.22;;
23490;SDS011;14683;50.038;8.078;2023-04-24T13:47:55;3.80;;;3.40;;
23490;SDS011;14683;50.038;8.078;2023-04-24T13:50:22;5.45;;;3.33;;
23490;SDS011;14683;50.038;8.078;2023-04-24T13:52:48;4.93;;;3.10;;
23490;SDS011;14683;50.038;8.078;2023-04-24T13:55:14;7.07;;;3.17;;
23490;SDS011;14683;50.038;8.078;2023-04-24T13:57:40;3.20;;;2.90;;
23490;SDS011;14683;50.038;8.078;2023-04-24T14:00:07;4.75;;;3.38;;
23490;SDS011;14683;50.038;8.078;2023-04-24T14:02:38;4.82;;;2.95;;
23490;SDS011;14683;50.038;8.078;2023-04-24T14:05:04;3.28;;;2.88;;
23490;SDS011;14683;50.038;8.078;2023-04-24T14:07:32;4.15;;;3.38;;
23490;SDS011;14683;50.038;8.078;2023-04-24T14:09:58;4.25;;;3.40;;
23490;SDS011;14683;50.038;8.078;2023-04-24T14:12:24;5.55;;;3.60;;
23490;SDS011;14683;50.038;8.078;2023-04-24T14:14:50;4.03;;;3.38;;
23490;SDS011;14683;50.038;8.078;2023-04-24T14:17:16;5.05;;;3.35;;
23490;SDS011;14683;50.038;8.078;2023-04-24T14:19:42;3.60;;;3.30;;
23490;SDS011;14683;50.038;8.078;2023-04-24T14:22:08;4.15;;;3.63;;
23490;SDS011;14683;50.038;8.078;2023-04-24T14:24:34;5.30;;;3.50;;
23490;SDS011;14683;50.038;8.078;2023-04-24T14:27:00;3.67;;;2.97;;
23490;SDS011;14683;50.038;8.078;2023-04-24T14:29:26;4.95;;;3.28;;
23490;SDS011;14683;50.038;8.078;2023-04-24T14:31:52;5.32;;;3.33;;
23490;SDS011;14683;50.038;8.078;2023-04-24T14:34:18;4.85;;;3.42;;
23490;SDS011;14683;50.038;8.078;2023-04-24T14:39:11;4.95;;;3.20;;
23490;SDS011;14683;50.038;8.078;2023-04-24T14:41:37;6.22;;;3.60;;
23490;SDS011;14683;50.038;8.078;2023-04-24T14:44:04;5.00;;;2.97;;
23490;SDS011;14683;50.038;8.078;2023-04-24T14:46:30;3.40;;;3.10;;
23490;SDS011;14683;50.038;8.078;2023-04-24T14:48:57;4.47;;;2.95;;
23490;SDS011;14683;50.038;8.078;2023-04-24T14:51:23;6.22;;;3.38;;
23490;SDS011;14683;50.038;8.078;2023-04-24T14:53:49;3.00;;;2.80;;
23490;SDS011;14683;50.038;8.078;2023-04-24T14:56:15;5.05;;;3.53;;
23490;SDS011;14683;50.038;8.078;2023-04-24T14:58:41;5.75;;;3.80;;
23490;SDS011;14683;50.038;8.078;2023-04-24T15:01:07;3.63;;;3.25;;
23490;SDS011;14683;50.038;8.078;2023-04-24T15:03:34;4.45;;;3.00;;
23490;SDS011;14683;50.038;8.078;2023-04-24T15:06:00;5.65;;;3.40;;
23490;SDS011;14683;50.038;8.078;2023-04-24T15:08:26;6.00;;;2.92;;
23490;SDS011;14683;50.038;8.078;2023-04-24T15:10:52;4.55;;;3.08;;
23490;SDS011;14683;50.038;8.078;2023-04-24T15:13:18;3.40;;;2.92;;
23490;SDS011;14683;50.038;8.078;2023-04-24T15:15:45;6.97;;;3.60;;
23490;SDS011;14683;50.038;8.078;2023-04-24T15:18:12;5.03;;;3.30;;
23490;SDS011;14683;50.038;8.078;2023-04-24T15:20:38;4.85;;;3.42;;
23490;SDS011;14683;50.038;8.078;2023-04-24T15:23:07;4.53;;;3.10;;
23490;SDS011;14683;50.038;8.078;2023-04-24T15:25:34;6.32;;;3.53;;
23490;SDS011;14683;50.038;8.078;2023-04-24T15:28:00;7.68;;;3.30;;
23490;SDS011;14683;50.038;8.078;2023-04-24T15:30:26;5.43;;;4.30;;
23490;SDS011;14683;50.038;8.078;2023-04-24T15:32:53;6.53;;;4.38;;
23490;SDS011;14683;50.038;8.078;2023-04-24T15:37:44;6.32;;;4.10;;
23490;SDS011;14683;50.038;8.078;2023-04-24T15:40:11;4.57;;;3.30;;
23490;SDS011;14683;50.038;8.078;2023-04-24T15:42:41;4.28;;;3.63;;
23490;SDS011;14683;50.038;8.078;2023-04-24T15:45:08;3.45;;;3.15;;
23490;SDS011;14683;50.038;8.078;2023-04-24T15:47:35;5.03;;;3.63;;
23490;SDS011;14683;50.038;8.078;2023-04-24T15:52:27;5.28;;;3.55;;
23490;SDS011;14683;50.038;8.078;2023-04-24T15:54:53;4.85;;;3.10;;
23490;SDS011;14683;50.038;8.078;2023-04-24T15:59:46;3.83;;;3.50;;
23490;SDS011;14683;50.038;8.078;2023-04-24T16:04:44;5.05;;;4.10;;
23490;SDS011;14683;50.038;8.078;2023-04-24T16:07:11;5.75;;;3.28;;
23490;SDS011;14683;50.038;8.078;2023-04-24T16:09:38;4.72;;;3.45;;
23490;SDS011;14683;50.038;8.078;2023-04-24T16:14:30;4.82;;;3.50;;
23490;SDS011;14683;50.038;8.078;2023-04-24T16:19:22;4.85;;;3.47;;
23490;SDS011;14683;50.038;8.078;2023-04-24T16:21:48;5.28;;;4.10;;
23490;SDS011;14683;50.038;8.078;2023-04-24T16:24:14;3.45;;;3.15;;
23490;SDS011;14683;50.038;8.078;2023-04-24T16:26:40;4.22;;;2.92;;
23490;SDS011;14683;50.038;8.078;2023-04-24T16:29:06;3.47;;;2.95;;
23490;SDS011;14683;50.038;8.078;2023-04-24T16:31:32;5.07;;;3.38;;
23490;SDS011;14683;50.038;8.078;2023-04-24T16:33:58;5.30;;;3.58;;
23490;SDS011;14683;50.038;8.078;2023-04-24T16:36:25;4.82;;;3.00;;
23490;SDS011;14683;50.038;8.078;2023-04-24T16:38:53;3.83;;;3.00;;
23490;SDS011;14683;50.038;8.078;2023-04-24T16:41:19;3.17;;;2.97;;
23490;SDS011;14683;50.038;8.078;2023-04-24T16:43:45;4.35;;;2.78;;
23490;SDS011;14683;50.038;8.078;2023-04-24T16:46:11;3.90;;;2.80;;
23490;SDS011;14683;50.038;8.078;2023-04-24T16:48:37;4.80;;;3.40;;
23490;SDS011;14683;50.038;8.078;2023-04-24T16:51:03;3.85;;;2.90;;
23490;SDS011;14683;50.038;8.078;2023-04-24T16:53:29;13.27;;;7.18;;
23490;SDS011;14683;50.038;8.078;2023-04-24T16:55:55;5.60;;;3.70;;
23490;SDS011;14683;50.038;8.078;2023-04-24T16:58:21;11.52;;;6.82;;
23490;SDS011;14683;50.038;8.078;2023-04-24T17:00:47;3.13;;;2.83;;
23490;SDS011;14683;50.038;8.078;2023-04-24T17:03:13;4.60;;;3.00;;
23490;SDS011;14683;50.038;8.078;2023-04-24T17:05:39;3.10;;;2.90;;
23490;SDS011;14683;50.038;8.078;2023-04-24T17:08:05;5.40;;;2.92;;
23490;SDS011;14683;50.038;8.078;2023-04-24T17:10:31;3.47;;;3.17;;
23490;SDS011;14683;50.038;8.078;2023-04-24T17:12:57;5.25;;;3.88;;
23490;SDS011;14683;50.038;8.078;2023-04-24T17:15:24;5.72;;;3.65;;
23490;SDS011;14683;50.038;8.078;2023-04-24T17:20:16;3.20;;;2.90;;
23490;SDS011;14683;50.038;8.078;2023-04-24T17:22:42;3.70;;;3.35;;
23490;SDS011;14683;50.038;8.078;2023-04-24T17:25:08;4.82;;;3.30;;
23490;SDS011;14683;50.038;8.078;2023-04-24T17:27:34;5.80;;;3.20;;
23490;SDS011;14683;50.038;8.078;2023-04-24T17:30:00;5.05;;;3.28;;
23490;SDS011;14683;50.038;8.078;2023-04-24T17:32:26;4.18;;;3.28;;
23490;SDS011;14683;50.038;8.078;2023-04-24T17:34:52;3.63;;;3.33;;
23490;SDS011;14683;50.038;8.078;2023-04-24T17:37:18;5.03;;;3.97;;
23490;SDS011;14683;50.038;8.078;2023-04-24T17:39:48;4.45;;;3.70;;
23490;SDS011;14683;50.038;8.078;2023-04-24T17:42:14;5.38;;;3.50;;
23490;SDS011;14683;50.038;8.078;2023-04-24T17:44:46;3.92;;;3.50;;
23490;SDS011;14683;50.038;8.078;2023-04-24T17:47:12;3.85;;;3.53;;
23490;SDS011;14683;50.038;8.078;2023-04-24T17:52:04;6.47;;;3.88;;
23490;SDS011;14683;50.038;8.078;2023-04-24T17:54:31;5.10;;;4.30;;
23490;SDS011;14683;50.038;8.078;2023-04-24T17:56:57;4.20;;;3.80;;
23490;SDS011;14683;50.038;8.078;2023-04-24T18:01:49;6.50;;;4.22;;
23490;SDS011;14683;50.038;8.078;2023-04-24T18:04:15;5.72;;;4.43;;
23490;SDS011;14683;50.038;8.078;2023-04-24T18:06:41;6.63;;;3.95;;
23490;SDS011;14683;50.038;8.078;2023-04-24T18:09:07;8.38;;;4.60;;
23490;SDS011;14683;50.038;8.078;2023-04-24T18:11:33;5.22;;;3.53;;
23490;SDS011;14683;50.038;8.078;2023-04-24T18:14:00;4.75;;;3.60;;
23490;SDS011;14683;50.038;8.078;2023-04-24T18:18:52;8.85;;;5.65;;
23490;SDS011;14683;50.038;8.078;2023-04-24T18:21:18;6.15;;;5.18;;
23490;SDS011;14683;50.038;8.078;2023-04-24T18:26:11;7.05;;;5.32;;
23490;SDS011;14683;50.038;8.078;2023-04-24T18:28:42;7.22;;;4.72;;
23490;SDS011;14683;50.038;8.078;2023-04-24T18:31:08;4.70;;;4.20;;
23490;SDS011;14683;50.038;8.078;2023-04-24T18:36:00;4.40;;;3.63;;
23490;SDS011;14683;50.038;8.078;2023-04-24T18:38:28;3.22;;;2.90;;
23490;SDS011;14683;50.038;8.078;2023-04-24T18:40:54;4.93;;;3.30;;
23490;SDS011;14683;50.038;8.078;2023-04-24T18:45:46;6.28;;;3.35;;
23490;SDS011;14683;50.038;8.078;2023-04-24T18:50:38;14.30;;;8.75;;
23490;SDS011;14683;50.038;8.078;2023-04-24T18:53:05;11.38;;;8.40;;
23490;SDS011;14683;50.038;8.078;2023-04-24T18:55:34;8.73;;;7.35;;
23490;SDS011;14683;50.038;8.078;2023-04-24T18:58:01;14.13;;;9.38;;
23490;SDS011;14683;50.038;8.078;2023-04-24T19:00:27;8.55;;;6.88;;
23490;SDS011;14683;50.038;8.078;2023-04-24T19:02:53;6.75;;;5.15;;
23490;SDS011;14683;50.038;8.078;2023-04-24T19:05:19;6.22;;;4.10;;
23490;SDS011;14683;50.038;8.078;2023-04-24T19:07:45;6.25;;;4.55;;
23490;SDS011;14683;50.038;8.078;2023-04-24T19:10:11;5.75;;;3.85;;
23490;SDS011;14683;50.038;8.078;2023-04-24T19:12:37;7.57;;;5.70;;
23490;SDS011;14683;50.038;8.078;2023-04-24T19:17:30;4.82;;;4.40;;
23490;SDS011;14683;50.038;8.078;2023-04-24T19:19:56;7.60;;;6.55;;
23490;SDS011;14683;50.038;8.078;2023-04-24T19:22:22;14.07;;;11.00;;
23490;SDS011;14683;50.038;8.078;2023-04-24T19:24:48;13.07;;;9.73;;
23490;SDS011;14683;50.038;8.078;2023-04-24T19:27:14;4.80;;;3.72;;
23490;SDS011;14683;50.038;8.078;2023-04-24T19:29:40;4.43;;;3.85;;
23490;SDS011;14683;50.038;8.078;2023-04-24T19:34:33;4.40;;;4.00;;
23490;SDS011;14683;50.038;8.078;2023-04-24T19:36:59;4.60;;;4.18;;
23490;SDS011;14683;50.038;8.078;2023-04-24T19:39:25;7.28;;;4.13;;
23490;SDS011;14683;50.038;8.078;2023-04-24T19:41:52;4.85;;;4.35;;
23490;SDS011;14683;50.038;8.078;2023-04-24T19:44:17;5.00;;;4.55;;
23490;SDS011;14683;50.038;8.078;2023-04-24T19:46:45;4.80;;;4.40;;
23490;SDS011;14683;50.038;8.078;2023-04-24T19:49:11;5.13;;;4.63;;
23490;SDS011;14683;50.038;8.078;2023-04-24T19:51:37;7.32;;;4.07;;
23490;SDS011;14683;50.038;8.078;2023-04-24T19:56:30;5.35;;;4.18;;
23490;SDS011;14683;50.038;8.078;2023-04-24T19:58:57;4.82;;;3.92;;
23490;SDS011;14683;50.038;8.078;2023-04-24T20:01:23;7.90;;;4.30;;
23490;SDS011;14683;50.038;8.078;2023-04-24T20:03:49;6.10;;;4.20;;
23490;SDS011;14683;50.038;8.078;2023-04-24T20:06:15;5.10;;;4.35;;
23490;SDS011;14683;50.038;8.078;2023-04-24T20:08:41;4.55;;;4.10;;
23490;SDS011;14683;50.038;8.078;2023-04-24T20:13:33;4.82;;;4.20;;
23490;SDS011;14683;50.038;8.078;2023-04-24T20:15:59;7.22;;;4.38;;
23490;SDS011;14683;50.038;8.078;2023-04-24T20:18:25;5.68;;;4.88;;
23490;SDS011;14683;50.038;8.078;2023-04-24T20:23:22;6.47;;;4.63;;
23490;SDS011;14683;50.038;8.078;2023-04-24T20:25:48;5.22;;;3.97;;
23490;SDS011;14683;50.038;8.078;2023-04-24T20:28:14;7.72;;;4.88;;
23490;SDS011;14683;50.038;8.078;2023-04-24T20:30:41;5.50;;;4.22;;
23490;SDS011;14683;50.038;8.078;2023-04-24T20:33:07;5.25;;;4.38;;
23490;SDS011;14683;50.038;8.078;2023-04-24T20:35:33;4.68;;;4.25;;
23490;SDS011;14683;50.038;8.078;2023-04-24T20:40:27;7.63;;;4.75;;
23490;SDS011;14683;50.038;8.078;2023-04-24T20:42:54;5.88;;;4.75;;
